sensor_id;sensor_type;location;lat;lon;timestamp;P1;durP1;ratioP1;P2;durP2;ratioP2
44658;SDS011;30378;50.186;8.644;2022-08-19T00:01:48;17.08;;;8.80;;
44658;SDS011;30378;50.186;8.644;2022-08-19T00:04:18;17.52;;;9.52;;
44658;SDS011;30378;50.186;8.644;2022-08-19T00:06:47;21.20;;;10.75;;
44658;SDS011;30378;50.186;8.644;2022-08-19T00:09:16;19.30;;;10.20;;
44658;SDS011;30378;50.186;8.644;2022-08-19T00:11:44;20.52;;;8.95;;
44658;SDS011;30378;50.186;8.644;2022-08-19T00:14:13;19.67;;;10.05;;
44658;SDS011;30378;50.186;8.644;2022-08-19T00:16:43;17.35;;;8.70;;
44658;SDS011;30378;50.186;8.644;2022-08-19T00:19:13;22.73;;;10.18;;
44658;SDS011;30378;50.186;8.644;2022-08-19T00:21:42;18.65;;;9.32;;
44658;SDS011;30378;50.186;8.644;2022-08-19T00:24:10;20.00;;;10.07;;
44658;SDS011;30378;50.186;8.644;2022-08-19T00:26:39;19.05;;;9.82;;
44658;SDS011;30378;50.186;8.644;2022-08-19T00:29:08;16.67;;;10.07;;
44658;SDS011;30378;50.186;8.644;2022-08-19T00:31:38;19.30;;;9.80;;
44658;SDS011;30378;50.186;8.644;2022-08-19T00:34:07;18.30;;;9.07;;
44658;SDS011;30378;50.186;8.644;2022-08-19T00:36:34;18.55;;;9.07;;
44658;SDS011;30378;50.186;8.644;2022-08-19T00:39:02;16.17;;;8.25;;
44658;SDS011;30378;50.186;8.644;2022-08-19T00:41:30;19.77;;;8.70;;
44658;SDS011;30378;50.186;8.644;2022-08-19T00:46:26;18.17;;;9.10;;
44658;SDS011;30378;50.186;8.644;2022-08-19T00:48:54;17.08;;;8.57;;
44658;SDS011;30378;50.186;8.644;2022-08-19T00:51:25;17.55;;;8.80;;
44658;SDS011;30378;50.186;8.644;2022-08-19T00:53:55;19.40;;;10.02;;
44658;SDS011;30378;50.186;8.644;2022-08-19T00:56:25;15.93;;;8.07;;
44658;SDS011;30378;50.186;8.644;2022-08-19T00:58:54;16.92;;;8.45;;
44658;SDS011;30378;50.186;8.644;2022-08-19T01:01:23;15.27;;;8.32;;
44658;SDS011;30378;50.186;8.644;2022-08-19T01:03:50;16.45;;;8.15;;
44658;SDS011;30378;50.186;8.644;2022-08-19T01:06:18;17.77;;;9.00;;
44658;SDS011;30378;50.186;8.644;2022-08-19T01:08:45;16.77;;;9.30;;
44658;SDS011;30378;50.186;8.644;2022-08-19T01:11:12;15.75;;;7.75;;
44658;SDS011;30378;50.186;8.644;2022-08-19T01:13:40;17.08;;;8.73;;
44658;SDS011;30378;50.186;8.644;2022-08-19T01:16:08;17.65;;;7.95;;
44658;SDS011;30378;50.186;8.644;2022-08-19T01:18:39;15.60;;;7.55;;
44658;SDS011;30378;50.186;8.644;2022-08-19T01:21:31;18.52;;;9.38;;
44658;SDS011;30378;50.186;8.644;2022-08-19T01:24:01;19.60;;;8.13;;
44658;SDS011;30378;50.186;8.644;2022-08-19T01:26:28;16.45;;;8.05;;
44658;SDS011;30378;50.186;8.644;2022-08-19T01:28:56;14.02;;;7.75;;
44658;SDS011;30378;50.186;8.644;2022-08-19T01:31:26;16.35;;;8.93;;
44658;SDS011;30378;50.186;8.644;2022-08-19T01:33:57;17.02;;;9.73;;
44658;SDS011;30378;50.186;8.644;2022-08-19T01:36:41;17.92;;;9.50;;
44658;SDS011;30378;50.186;8.644;2022-08-19T01:39:16;18.25;;;8.13;;
44658;SDS011;30378;50.186;8.644;2022-08-19T01:41:47;18.58;;;8.98;;
44658;SDS011;30378;50.186;8.644;2022-08-19T01:44:15;16.15;;;8.45;;
44658;SDS011;30378;50.186;8.644;2022-08-19T01:46:45;16.95;;;8.23;;
44658;SDS011;30378;50.186;8.644;2022-08-19T01:49:14;17.92;;;9.20;;
44658;SDS011;30378;50.186;8.644;2022-08-19T01:51:43;16.58;;;9.77;;
44658;SDS011;30378;50.186;8.644;2022-08-19T01:54:11;16.23;;;8.95;;
44658;SDS011;30378;50.186;8.644;2022-08-19T01:56:42;16.63;;;8.93;;
44658;SDS011;30378;50.186;8.644;2022-08-19T01:59:13;16.23;;;8.90;;
44658;SDS011;30378;50.186;8.644;2022-08-19T02:01:44;20.10;;;9.68;;
44658;SDS011;30378;50.186;8.644;2022-08-19T02:04:11;16.05;;;9.07;;
44658;SDS011;30378;50.186;8.644;2022-08-19T02:06:39;14.82;;;8.60;;
44658;SDS011;30378;50.186;8.644;2022-08-19T02:09:07;17.08;;;9.23;;
44658;SDS011;30378;50.186;8.644;2022-08-19T02:11:36;13.73;;;8.15;;
44658;SDS011;30378;50.186;8.644;2022-08-19T02:14:06;15.77;;;9.60;;
44658;SDS011;30378;50.186;8.644;2022-08-19T02:16:35;16.73;;;8.77;;
44658;SDS011;30378;50.186;8.644;2022-08-19T02:19:02;17.17;;;8.50;;
44658;SDS011;30378;50.186;8.644;2022-08-19T02:21:30;15.43;;;8.32;;
44658;SDS011;30378;50.186;8.644;2022-08-19T02:23:57;16.60;;;7.60;;
44658;SDS011;30378;50.186;8.644;2022-08-19T02:26:25;14.63;;;8.27;;
44658;SDS011;30378;50.186;8.644;2022-08-19T02:28:56;16.63;;;8.43;;
44658;SDS011;30378;50.186;8.644;2022-08-19T02:31:24;15.75;;;7.85;;
44658;SDS011;30378;50.186;8.644;2022-08-19T02:33:54;13.32;;;8.57;;
44658;SDS011;30378;50.186;8.644;2022-08-19T02:36:23;16.75;;;8.40;;
44658;SDS011;30378;50.186;8.644;2022-08-19T02:38:51;15.05;;;7.78;;
44658;SDS011;30378;50.186;8.644;2022-08-19T02:41:21;16.48;;;8.43;;
44658;SDS011;30378;50.186;8.644;2022-08-19T02:43:53;14.75;;;7.90;;
44658;SDS011;30378;50.186;8.644;2022-08-19T02:46:23;13.57;;;7.82;;
44658;SDS011;30378;50.186;8.644;2022-08-19T02:48:54;14.38;;;7.78;;
44658;SDS011;30378;50.186;8.644;2022-08-19T02:51:25;14.98;;;7.13;;
44658;SDS011;30378;50.186;8.644;2022-08-19T02:53:54;17.73;;;8.63;;
44658;SDS011;30378;50.186;8.644;2022-08-19T02:56:22;16.35;;;9.00;;
44658;SDS011;30378;50.186;8.644;2022-08-19T02:58:51;15.27;;;8.65;;
44658;SDS011;30378;50.186;8.644;2022-08-19T03:01:31;18.50;;;8.95;;
44658;SDS011;30378;50.186;8.644;2022-08-19T03:04:00;14.60;;;8.68;;
44658;SDS011;30378;50.186;8.644;2022-08-19T03:06:31;14.45;;;7.82;;
44658;SDS011;30378;50.186;8.644;2022-08-19T03:08:59;15.15;;;6.75;;
44658;SDS011;30378;50.186;8.644;2022-08-19T03:11:30;18.15;;;8.32;;
44658;SDS011;30378;50.186;8.644;2022-08-19T03:13:58;17.23;;;7.78;;
44658;SDS011;30378;50.186;8.644;2022-08-19T03:16:28;13.77;;;8.07;;
44658;SDS011;30378;50.186;8.644;2022-08-19T03:18:56;13.32;;;8.05;;
44658;SDS011;30378;50.186;8.644;2022-08-19T03:21:30;15.15;;;9.05;;
44658;SDS011;30378;50.186;8.644;2022-08-19T03:24:00;14.18;;;7.43;;
44658;SDS011;30378;50.186;8.644;2022-08-19T03:26:29;16.58;;;9.32;;
44658;SDS011;30378;50.186;8.644;2022-08-19T03:28:56;15.93;;;8.95;;
44658;SDS011;30378;50.186;8.644;2022-08-19T03:31:27;15.75;;;7.07;;
44658;SDS011;30378;50.186;8.644;2022-08-19T03:33:55;14.90;;;7.22;;
44658;SDS011;30378;50.186;8.644;2022-08-19T03:36:23;13.48;;;6.90;;
44658;SDS011;30378;50.186;8.644;2022-08-19T03:38:53;15.30;;;8.80;;
44658;SDS011;30378;50.186;8.644;2022-08-19T03:41:25;13.88;;;8.15;;
44658;SDS011;30378;50.186;8.644;2022-08-19T03:43:54;16.58;;;7.88;;
44658;SDS011;30378;50.186;8.644;2022-08-19T03:46:24;14.43;;;7.20;;
44658;SDS011;30378;50.186;8.644;2022-08-19T03:48:54;15.00;;;8.50;;
44658;SDS011;30378;50.186;8.644;2022-08-19T03:51:25;14.23;;;8.00;;
44658;SDS011;30378;50.186;8.644;2022-08-19T03:53:55;12.63;;;6.47;;
44658;SDS011;30378;50.186;8.644;2022-08-19T03:56:22;11.20;;;7.13;;
44658;SDS011;30378;50.186;8.644;2022-08-19T03:58:52;12.05;;;6.38;;
44658;SDS011;30378;50.186;8.644;2022-08-19T04:01:21;16.38;;;7.95;;
44658;SDS011;30378;50.186;8.644;2022-08-19T04:03:50;16.63;;;7.38;;
44658;SDS011;30378;50.186;8.644;2022-08-19T04:06:19;13.70;;;7.00;;
44658;SDS011;30378;50.186;8.644;2022-08-19T04:08:49;14.15;;;7.53;;
44658;SDS011;30378;50.186;8.644;2022-08-19T04:11:19;11.52;;;5.97;;
44658;SDS011;30378;50.186;8.644;2022-08-19T04:13:50;15.05;;;7.05;;
44658;SDS011;30378;50.186;8.644;2022-08-19T04:16:18;15.93;;;8.07;;
44658;SDS011;30378;50.186;8.644;2022-08-19T04:18:47;15.00;;;7.03;;
44658;SDS011;30378;50.186;8.644;2022-08-19T04:21:16;16.42;;;7.15;;
44658;SDS011;30378;50.186;8.644;2022-08-19T04:23:46;14.98;;;7.05;;
44658;SDS011;30378;50.186;8.644;2022-08-19T04:26:18;16.55;;;8.75;;
44658;SDS011;30378;50.186;8.644;2022-08-19T04:28:46;12.13;;;6.45;;
44658;SDS011;30378;50.186;8.644;2022-08-19T04:31:15;14.30;;;8.18;;
44658;SDS011;30378;50.186;8.644;2022-08-19T04:33:44;15.48;;;7.00;;
44658;SDS011;30378;50.186;8.644;2022-08-19T04:36:15;16.63;;;7.90;;
44658;SDS011;30378;50.186;8.644;2022-08-19T04:38:48;15.00;;;7.40;;
44658;SDS011;30378;50.186;8.644;2022-08-19T04:41:16;12.93;;;6.65;;
44658;SDS011;30378;50.186;8.644;2022-08-19T04:44:02;18.92;;;7.32;;
44658;SDS011;30378;50.186;8.644;2022-08-19T04:46:30;16.52;;;8.95;;
44658;SDS011;30378;50.186;8.644;2022-08-19T04:48:59;14.05;;;6.53;;
44658;SDS011;30378;50.186;8.644;2022-08-19T04:51:28;13.07;;;7.05;;
44658;SDS011;30378;50.186;8.644;2022-08-19T04:53:58;18.63;;;7.93;;
44658;SDS011;30378;50.186;8.644;2022-08-19T04:56:26;14.07;;;6.88;;
44658;SDS011;30378;50.186;8.644;2022-08-19T04:58:54;14.52;;;7.47;;
44658;SDS011;30378;50.186;8.644;2022-08-19T05:01:24;13.50;;;7.22;;
44658;SDS011;30378;50.186;8.644;2022-08-19T05:03:55;15.75;;;6.88;;
44658;SDS011;30378;50.186;8.644;2022-08-19T05:06:24;13.55;;;6.25;;
44658;SDS011;30378;50.186;8.644;2022-08-19T05:08:52;13.55;;;6.50;;
44658;SDS011;30378;50.186;8.644;2022-08-19T05:11:20;14.65;;;8.77;;
44658;SDS011;30378;50.186;8.644;2022-08-19T05:13:56;14.70;;;6.50;;
44658;SDS011;30378;50.186;8.644;2022-08-19T05:16:25;14.70;;;6.00;;
44658;SDS011;30378;50.186;8.644;2022-08-19T05:18:54;12.18;;;7.00;;
44658;SDS011;30378;50.186;8.644;2022-08-19T05:21:41;15.77;;;7.88;;
44658;SDS011;30378;50.186;8.644;2022-08-19T05:24:28;13.25;;;6.28;;
44658;SDS011;30378;50.186;8.644;2022-08-19T05:26:56;12.32;;;7.65;;
44658;SDS011;30378;50.186;8.644;2022-08-19T05:29:25;11.43;;;6.18;;
44658;SDS011;30378;50.186;8.644;2022-08-19T05:31:53;9.27;;;5.90;;
44658;SDS011;30378;50.186;8.644;2022-08-19T05:34:22;10.48;;;6.82;;
44658;SDS011;30378;50.186;8.644;2022-08-19T05:36:55;12.93;;;5.63;;
44658;SDS011;30378;50.186;8.644;2022-08-19T05:39:26;13.52;;;5.82;;
44658;SDS011;30378;50.186;8.644;2022-08-19T05:41:57;12.60;;;6.82;;
44658;SDS011;30378;50.186;8.644;2022-08-19T05:44:28;11.35;;;5.25;;
44658;SDS011;30378;50.186;8.644;2022-08-19T05:47:01;10.60;;;5.93;;
44658;SDS011;30378;50.186;8.644;2022-08-19T05:49:31;11.93;;;5.40;;
44658;SDS011;30378;50.186;8.644;2022-08-19T05:52:07;8.82;;;5.13;;
44658;SDS011;30378;50.186;8.644;2022-08-19T05:54:38;9.93;;;6.35;;
44658;SDS011;30378;50.186;8.644;2022-08-19T05:57:09;9.57;;;6.47;;
44658;SDS011;30378;50.186;8.644;2022-08-19T05:59:37;13.05;;;5.70;;
44658;SDS011;30378;50.186;8.644;2022-08-19T06:02:05;10.30;;;6.53;;
44658;SDS011;30378;50.186;8.644;2022-08-19T06:04:33;8.15;;;5.00;;
44658;SDS011;30378;50.186;8.644;2022-08-19T06:07:01;10.20;;;5.80;;
44658;SDS011;30378;50.186;8.644;2022-08-19T06:09:28;7.60;;;4.78;;
44658;SDS011;30378;50.186;8.644;2022-08-19T06:11:57;8.38;;;5.35;;
44658;SDS011;30378;50.186;8.644;2022-08-19T06:14:28;7.78;;;5.13;;
44658;SDS011;30378;50.186;8.644;2022-08-19T06:16:57;7.57;;;4.32;;
44658;SDS011;30378;50.186;8.644;2022-08-19T06:19:30;10.05;;;4.97;;
44658;SDS011;30378;50.186;8.644;2022-08-19T06:21:58;6.80;;;4.32;;
44658;SDS011;30378;50.186;8.644;2022-08-19T06:24:27;10.10;;;4.72;;
44658;SDS011;30378;50.186;8.644;2022-08-19T06:26:56;9.75;;;5.15;;
44658;SDS011;30378;50.186;8.644;2022-08-19T06:29:25;8.43;;;4.65;;
44658;SDS011;30378;50.186;8.644;2022-08-19T06:31:53;9.85;;;5.90;;
44658;SDS011;30378;50.186;8.644;2022-08-19T06:34:23;10.68;;;4.70;;
44658;SDS011;30378;50.186;8.644;2022-08-19T06:36:51;8.25;;;4.57;;
44658;SDS011;30378;50.186;8.644;2022-08-19T06:39:20;7.32;;;4.88;;
44658;SDS011;30378;50.186;8.644;2022-08-19T06:41:56;10.85;;;5.47;;
44658;SDS011;30378;50.186;8.644;2022-08-19T06:44:29;7.43;;;3.92;;
44658;SDS011;30378;50.186;8.644;2022-08-19T06:47:01;7.18;;;4.97;;
44658;SDS011;30378;50.186;8.644;2022-08-19T06:49:30;6.05;;;3.95;;
44658;SDS011;30378;50.186;8.644;2022-08-19T06:51:58;7.07;;;3.90;;
44658;SDS011;30378;50.186;8.644;2022-08-19T06:54:26;7.57;;;4.75;;
44658;SDS011;30378;50.186;8.644;2022-08-19T06:56:58;6.35;;;3.97;;
44658;SDS011;30378;50.186;8.644;2022-08-19T06:59:29;8.75;;;4.20;;
44658;SDS011;30378;50.186;8.644;2022-08-19T07:02:00;6.32;;;4.63;;
44658;SDS011;30378;50.186;8.644;2022-08-19T07:04:33;6.43;;;4.38;;
44658;SDS011;30378;50.186;8.644;2022-08-19T07:07:06;5.63;;;3.35;;
44658;SDS011;30378;50.186;8.644;2022-08-19T07:09:37;5.78;;;3.30;;
44658;SDS011;30378;50.186;8.644;2022-08-19T07:12:06;8.43;;;3.97;;
44658;SDS011;30378;50.186;8.644;2022-08-19T07:14:36;6.57;;;4.65;;
44658;SDS011;30378;50.186;8.644;2022-08-19T07:17:05;5.25;;;3.55;;
44658;SDS011;30378;50.186;8.644;2022-08-19T07:19:34;6.60;;;4.35;;
44658;SDS011;30378;50.186;8.644;2022-08-19T07:22:04;5.88;;;3.85;;
44658;SDS011;30378;50.186;8.644;2022-08-19T07:24:34;5.10;;;3.53;;
44658;SDS011;30378;50.186;8.644;2022-08-19T07:27:03;4.20;;;3.78;;
44658;SDS011;30378;50.186;8.644;2022-08-19T07:29:32;4.78;;;3.10;;
44658;SDS011;30378;50.186;8.644;2022-08-19T07:32:01;5.57;;;2.67;;
44658;SDS011;30378;50.186;8.644;2022-08-19T07:34:30;5.90;;;3.25;;
44658;SDS011;30378;50.186;8.644;2022-08-19T07:37:01;4.18;;;3.10;;
44658;SDS011;30378;50.186;8.644;2022-08-19T07:39:29;4.32;;;3.92;;
44658;SDS011;30378;50.186;8.644;2022-08-19T07:41:59;5.22;;;3.83;;
44658;SDS011;30378;50.186;8.644;2022-08-19T07:44:27;4.43;;;3.25;;
44658;SDS011;30378;50.186;8.644;2022-08-19T07:46:56;6.22;;;3.03;;
44658;SDS011;30378;50.186;8.644;2022-08-19T07:49:24;4.90;;;3.70;;
44658;SDS011;30378;50.186;8.644;2022-08-19T07:51:52;4.85;;;3.08;;
44658;SDS011;30378;50.186;8.644;2022-08-19T07:54:29;7.22;;;4.82;;
44658;SDS011;30378;50.186;8.644;2022-08-19T07:56:58;5.90;;;4.68;;
44658;SDS011;30378;50.186;8.644;2022-08-19T07:59:25;5.07;;;3.33;;
44658;SDS011;30378;50.186;8.644;2022-08-19T08:01:52;4.93;;;3.92;;
44658;SDS011;30378;50.186;8.644;2022-08-19T08:04:20;6.53;;;4.45;;
44658;SDS011;30378;50.186;8.644;2022-08-19T08:07:07;5.70;;;4.03;;
44658;SDS011;30378;50.186;8.644;2022-08-19T08:09:53;4.72;;;4.22;;
44658;SDS011;30378;50.186;8.644;2022-08-19T08:12:22;5.20;;;3.47;;
44658;SDS011;30378;50.186;8.644;2022-08-19T08:15:00;5.63;;;4.38;;
44658;SDS011;30378;50.186;8.644;2022-08-19T08:17:31;4.80;;;3.25;;
44658;SDS011;30378;50.186;8.644;2022-08-19T08:20:00;5.28;;;4.43;;
44658;SDS011;30378;50.186;8.644;2022-08-19T08:22:27;5.57;;;4.43;;
44658;SDS011;30378;50.186;8.644;2022-08-19T08:25:14;9.07;;;3.55;;
44658;SDS011;30378;50.186;8.644;2022-08-19T08:27:45;5.47;;;3.47;;
44658;SDS011;30378;50.186;8.644;2022-08-19T08:30:15;7.00;;;3.75;;
44658;SDS011;30378;50.186;8.644;2022-08-19T08:32:44;5.88;;;4.07;;
44658;SDS011;30378;50.186;8.644;2022-08-19T08:35:13;5.95;;;3.50;;
44658;SDS011;30378;50.186;8.644;2022-08-19T08:37:44;8.27;;;4.70;;
44658;SDS011;30378;50.186;8.644;2022-08-19T08:43:11;5.22;;;4.22;;
44658;SDS011;30378;50.186;8.644;2022-08-19T08:48:47;5.88;;;3.33;;
44658;SDS011;30378;50.186;8.644;2022-08-19T08:51:29;5.50;;;3.15;;
44658;SDS011;30378;50.186;8.644;2022-08-19T08:54:20;5.15;;;3.22;;
44658;SDS011;30378;50.186;8.644;2022-08-19T08:56:54;6.35;;;3.65;;
44658;SDS011;30378;50.186;8.644;2022-08-19T08:59:28;5.97;;;3.58;;
44658;SDS011;30378;50.186;8.644;2022-08-19T09:02:01;7.07;;;3.58;;
44658;SDS011;30378;50.186;8.644;2022-08-19T09:04:29;6.53;;;3.80;;
44658;SDS011;30378;50.186;8.644;2022-08-19T09:07:09;5.32;;;3.38;;
44658;SDS011;30378;50.186;8.644;2022-08-19T09:10:02;7.05;;;3.67;;
44658;SDS011;30378;50.186;8.644;2022-08-19T09:15:16;6.25;;;4.22;;
44658;SDS011;30378;50.186;8.644;2022-08-19T09:17:50;5.95;;;3.22;;
44658;SDS011;30378;50.186;8.644;2022-08-19T09:20:18;6.90;;;4.15;;
44658;SDS011;30378;50.186;8.644;2022-08-19T09:22:48;7.05;;;3.90;;
44658;SDS011;30378;50.186;8.644;2022-08-19T09:25:16;6.28;;;4.15;;
44658;SDS011;30378;50.186;8.644;2022-08-19T09:27:49;4.63;;;3.97;;
44658;SDS011;30378;50.186;8.644;2022-08-19T09:30:19;6.90;;;3.90;;
44658;SDS011;30378;50.186;8.644;2022-08-19T09:32:50;5.30;;;4.03;;
44658;SDS011;30378;50.186;8.644;2022-08-19T09:35:22;6.30;;;4.60;;
44658;SDS011;30378;50.186;8.644;2022-08-19T09:37:51;4.40;;;4.00;;
44658;SDS011;30378;50.186;8.644;2022-08-19T09:40:20;5.38;;;4.50;;
44658;SDS011;30378;50.186;8.644;2022-08-19T09:42:47;6.05;;;4.03;;
44658;SDS011;30378;50.186;8.644;2022-08-19T09:45:15;6.97;;;4.80;;
44658;SDS011;30378;50.186;8.644;2022-08-19T09:47:48;7.47;;;3.53;;
44658;SDS011;30378;50.186;8.644;2022-08-19T09:50:17;5.78;;;3.55;;
44658;SDS011;30378;50.186;8.644;2022-08-19T09:52:45;7.72;;;4.75;;
44658;SDS011;30378;50.186;8.644;2022-08-19T09:55:12;11.05;;;6.07;;
44658;SDS011;30378;50.186;8.644;2022-08-19T09:57:40;7.20;;;5.57;;
44658;SDS011;30378;50.186;8.644;2022-08-19T10:00:08;6.88;;;5.68;;
44658;SDS011;30378;50.186;8.644;2022-08-19T10:02:36;6.45;;;4.13;;
44658;SDS011;30378;50.186;8.644;2022-08-19T10:05:03;6.70;;;6.00;;
44658;SDS011;30378;50.186;8.644;2022-08-19T10:07:49;5.75;;;4.90;;
44658;SDS011;30378;50.186;8.644;2022-08-19T10:10:17;6.03;;;4.32;;
44658;SDS011;30378;50.186;8.644;2022-08-19T10:12:44;6.20;;;5.28;;
44658;SDS011;30378;50.186;8.644;2022-08-19T10:15:13;7.30;;;5.38;;
44658;SDS011;30378;50.186;8.644;2022-08-19T10:17:41;6.25;;;5.45;;
44658;SDS011;30378;50.186;8.644;2022-08-19T10:20:09;9.38;;;5.55;;
44658;SDS011;30378;50.186;8.644;2022-08-19T10:22:36;7.28;;;4.72;;
44658;SDS011;30378;50.186;8.644;2022-08-19T10:25:05;7.47;;;6.13;;
44658;SDS011;30378;50.186;8.644;2022-08-19T10:27:32;7.30;;;5.25;;
44658;SDS011;30378;50.186;8.644;2022-08-19T10:29:59;7.45;;;4.93;;
44658;SDS011;30378;50.186;8.644;2022-08-19T10:32:27;7.00;;;5.80;;
44658;SDS011;30378;50.186;8.644;2022-08-19T10:34:56;8.32;;;6.13;;
44658;SDS011;30378;50.186;8.644;2022-08-19T10:37:23;8.18;;;6.22;;
44658;SDS011;30378;50.186;8.644;2022-08-19T10:39:50;7.68;;;5.05;;
44658;SDS011;30378;50.186;8.644;2022-08-19T10:42:18;8.13;;;7.18;;
44658;SDS011;30378;50.186;8.644;2022-08-19T10:44:45;6.97;;;5.60;;
44658;SDS011;30378;50.186;8.644;2022-08-19T10:47:16;9.27;;;6.47;;
44658;SDS011;30378;50.186;8.644;2022-08-19T10:49:44;9.27;;;7.65;;
44658;SDS011;30378;50.186;8.644;2022-08-19T10:52:30;11.57;;;8.02;;
44658;SDS011;30378;50.186;8.644;2022-08-19T10:55:04;8.77;;;7.90;;
44658;SDS011;30378;50.186;8.644;2022-08-19T10:57:51;7.82;;;6.18;;
44658;SDS011;30378;50.186;8.644;2022-08-19T11:00:27;9.00;;;6.30;;
44658;SDS011;30378;50.186;8.644;2022-08-19T11:02:55;7.53;;;5.95;;
44658;SDS011;30378;50.186;8.644;2022-08-19T11:05:22;7.68;;;6.32;;
44658;SDS011;30378;50.186;8.644;2022-08-19T11:07:50;11.77;;;5.93;;
44658;SDS011;30378;50.186;8.644;2022-08-19T11:10:18;8.35;;;6.78;;
44658;SDS011;30378;50.186;8.644;2022-08-19T11:12:47;8.50;;;6.38;;
44658;SDS011;30378;50.186;8.644;2022-08-19T11:15:15;8.82;;;6.53;;
44658;SDS011;30378;50.186;8.644;2022-08-19T11:17:43;9.70;;;6.18;;
44658;SDS011;30378;50.186;8.644;2022-08-19T11:20:11;11.85;;;8.65;;
44658;SDS011;30378;50.186;8.644;2022-08-19T11:22:40;8.73;;;7.82;;
44658;SDS011;30378;50.186;8.644;2022-08-19T11:25:08;9.50;;;7.68;;
44658;SDS011;30378;50.186;8.644;2022-08-19T11:27:40;8.00;;;6.40;;
44658;SDS011;30378;50.186;8.644;2022-08-19T11:30:12;9.07;;;7.32;;
44658;SDS011;30378;50.186;8.644;2022-08-19T11:32:40;8.77;;;7.57;;
44658;SDS011;30378;50.186;8.644;2022-08-19T11:35:11;9.98;;;7.70;;
44658;SDS011;30378;50.186;8.644;2022-08-19T11:37:38;10.18;;;7.93;;
44658;SDS011;30378;50.186;8.644;2022-08-19T11:40:06;8.50;;;6.00;;
44658;SDS011;30378;50.186;8.644;2022-08-19T11:42:34;7.85;;;5.97;;
44658;SDS011;30378;50.186;8.644;2022-08-19T11:45:19;7.13;;;5.15;;
44658;SDS011;30378;50.186;8.644;2022-08-19T11:47:47;8.27;;;7.05;;
44658;SDS011;30378;50.186;8.644;2022-08-19T11:50:15;8.38;;;6.85;;
44658;SDS011;30378;50.186;8.644;2022-08-19T11:52:43;7.13;;;5.50;;
44658;SDS011;30378;50.186;8.644;2022-08-19T11:55:12;7.57;;;5.30;;
44658;SDS011;30378;50.186;8.644;2022-08-19T11:57:40;6.65;;;6.05;;
44658;SDS011;30378;50.186;8.644;2022-08-19T12:00:10;7.97;;;5.35;;
44658;SDS011;30378;50.186;8.644;2022-08-19T12:02:41;7.07;;;5.20;;
44658;SDS011;30378;50.186;8.644;2022-08-19T12:05:09;6.82;;;5.22;;
44658;SDS011;30378;50.186;8.644;2022-08-19T12:07:38;7.15;;;6.03;;
44658;SDS011;30378;50.186;8.644;2022-08-19T12:10:06;10.02;;;6.53;;
44658;SDS011;30378;50.186;8.644;2022-08-19T12:12:33;9.55;;;7.07;;
44658;SDS011;30378;50.186;8.644;2022-08-19T12:15:01;7.65;;;6.95;;
44658;SDS011;30378;50.186;8.644;2022-08-19T12:17:29;10.93;;;6.85;;
44658;SDS011;30378;50.186;8.644;2022-08-19T12:19:57;8.00;;;5.63;;
44658;SDS011;30378;50.186;8.644;2022-08-19T12:22:24;6.78;;;5.25;;
44658;SDS011;30378;50.186;8.644;2022-08-19T12:24:51;8.45;;;6.00;;
44658;SDS011;30378;50.186;8.644;2022-08-19T12:27:20;8.52;;;5.95;;
44658;SDS011;30378;50.186;8.644;2022-08-19T12:29:47;8.95;;;6.80;;
44658;SDS011;30378;50.186;8.644;2022-08-19T12:32:15;6.07;;;5.47;;
44658;SDS011;30378;50.186;8.644;2022-08-19T12:34:42;8.02;;;6.95;;
44658;SDS011;30378;50.186;8.644;2022-08-19T12:37:09;8.45;;;6.82;;
44658;SDS011;30378;50.186;8.644;2022-08-19T12:39:39;8.00;;;6.78;;
44658;SDS011;30378;50.186;8.644;2022-08-19T12:42:09;7.85;;;6.00;;
44658;SDS011;30378;50.186;8.644;2022-08-19T12:44:38;9.05;;;6.00;;
44658;SDS011;30378;50.186;8.644;2022-08-19T12:47:06;8.25;;;6.45;;
44658;SDS011;30378;50.186;8.644;2022-08-19T12:49:35;7.10;;;5.07;;
44658;SDS011;30378;50.186;8.644;2022-08-19T12:52:04;6.10;;;4.82;;
44658;SDS011;30378;50.186;8.644;2022-08-19T12:54:32;10.13;;;6.57;;
44658;SDS011;30378;50.186;8.644;2022-08-19T12:56:59;6.75;;;4.68;;
44658;SDS011;30378;50.186;8.644;2022-08-19T12:59:26;5.30;;;4.55;;
44658;SDS011;30378;50.186;8.644;2022-08-19T13:01:54;6.05;;;4.00;;
44658;SDS011;30378;50.186;8.644;2022-08-19T13:04:21;6.95;;;4.32;;
44658;SDS011;30378;50.186;8.644;2022-08-19T13:06:49;7.63;;;5.75;;
44658;SDS011;30378;50.186;8.644;2022-08-19T13:09:17;5.82;;;4.15;;
44658;SDS011;30378;50.186;8.644;2022-08-19T13:11:44;6.25;;;4.22;;
44658;SDS011;30378;50.186;8.644;2022-08-19T13:14:11;6.20;;;4.90;;
44658;SDS011;30378;50.186;8.644;2022-08-19T13:16:39;5.63;;;4.95;;
44658;SDS011;30378;50.186;8.644;2022-08-19T13:19:07;6.43;;;4.88;;
44658;SDS011;30378;50.186;8.644;2022-08-19T13:21:34;6.13;;;5.47;;
44658;SDS011;30378;50.186;8.644;2022-08-19T13:24:01;6.85;;;4.47;;
44658;SDS011;30378;50.186;8.644;2022-08-19T13:26:29;6.75;;;3.97;;
44658;SDS011;30378;50.186;8.644;2022-08-19T13:28:56;5.82;;;4.07;;
44658;SDS011;30378;50.186;8.644;2022-08-19T13:31:42;5.53;;;3.92;;
44658;SDS011;30378;50.186;8.644;2022-08-19T13:34:32;7.05;;;4.47;;
44658;SDS011;30378;50.186;8.644;2022-08-19T13:37:02;6.32;;;5.32;;
44658;SDS011;30378;50.186;8.644;2022-08-19T13:39:33;5.57;;;4.78;;
44658;SDS011;30378;50.186;8.644;2022-08-19T13:42:02;6.32;;;4.88;;
44658;SDS011;30378;50.186;8.644;2022-08-19T13:44:30;4.93;;;3.95;;
44658;SDS011;30378;50.186;8.644;2022-08-19T13:47:02;5.30;;;3.88;;
44658;SDS011;30378;50.186;8.644;2022-08-19T13:49:34;6.18;;;4.68;;
44658;SDS011;30378;50.186;8.644;2022-08-19T13:52:03;4.70;;;4.28;;
44658;SDS011;30378;50.186;8.644;2022-08-19T13:54:31;4.68;;;4.20;;
44658;SDS011;30378;50.186;8.644;2022-08-19T13:56:59;8.10;;;4.30;;
44658;SDS011;30378;50.186;8.644;2022-08-19T13:59:26;5.75;;;3.90;;
44658;SDS011;30378;50.186;8.644;2022-08-19T14:01:57;5.90;;;4.43;;
44658;SDS011;30378;50.186;8.644;2022-08-19T14:04:25;4.75;;;3.97;;
44658;SDS011;30378;50.186;8.644;2022-08-19T14:06:52;3.92;;;3.00;;
44658;SDS011;30378;50.186;8.644;2022-08-19T14:09:19;4.57;;;4.18;;
44658;SDS011;30378;50.186;8.644;2022-08-19T14:11:50;3.90;;;3.20;;
44658;SDS011;30378;50.186;8.644;2022-08-19T14:14:18;4.38;;;3.35;;
44658;SDS011;30378;50.186;8.644;2022-08-19T14:16:45;7.78;;;3.38;;
44658;SDS011;30378;50.186;8.644;2022-08-19T14:19:12;5.65;;;4.57;;
44658;SDS011;30378;50.186;8.644;2022-08-19T14:21:39;5.88;;;3.15;;
44658;SDS011;30378;50.186;8.644;2022-08-19T14:24:07;4.55;;;3.63;;
44658;SDS011;30378;50.186;8.644;2022-08-19T14:26:35;9.00;;;3.88;;
44658;SDS011;30378;50.186;8.644;2022-08-19T14:29:02;4.47;;;4.07;;
44658;SDS011;30378;50.186;8.644;2022-08-19T14:31:29;4.55;;;4.15;;
44658;SDS011;30378;50.186;8.644;2022-08-19T14:33:56;4.10;;;3.58;;
44658;SDS011;30378;50.186;8.644;2022-08-19T14:36:24;7.55;;;3.28;;
44658;SDS011;30378;50.186;8.644;2022-08-19T14:38:51;4.15;;;3.03;;
44658;SDS011;30378;50.186;8.644;2022-08-19T14:41:19;4.82;;;3.55;;
44658;SDS011;30378;50.186;8.644;2022-08-19T14:43:49;4.78;;;4.10;;
44658;SDS011;30378;50.186;8.644;2022-08-19T14:46:19;4.30;;;3.03;;
44658;SDS011;30378;50.186;8.644;2022-08-19T14:48:49;4.40;;;3.03;;
44658;SDS011;30378;50.186;8.644;2022-08-19T14:51:18;4.70;;;4.03;;
44658;SDS011;30378;50.186;8.644;2022-08-19T14:53:46;4.57;;;3.92;;
44658;SDS011;30378;50.186;8.644;2022-08-19T14:56:18;5.45;;;4.95;;
44658;SDS011;30378;50.186;8.644;2022-08-19T14:58:47;6.15;;;4.28;;
44658;SDS011;30378;50.186;8.644;2022-08-19T15:01:18;4.43;;;4.00;;
44658;SDS011;30378;50.186;8.644;2022-08-19T15:03:48;5.75;;;2.80;;
44658;SDS011;30378;50.186;8.644;2022-08-19T15:06:15;4.40;;;3.03;;
44658;SDS011;30378;50.186;8.644;2022-08-19T15:08:43;5.63;;;2.95;;